Impacts TAF Board INFO
FOR SITUATIONAL AWARENESS. NOT TO BE USED FOR FLIGHT PLANNING PURPOSES.
IDs:

KBWI - Baltimore-Washington, MD, US

Issued at 1139 UTC 25 Feb 2018
Updated at 1330 UTC 25 Feb 2018
Potential Impact None Slight Moderate High
Time<<26/14Z 26/15Z 26/16Z 26/17Z 26/18Z 26/19Z 26/20Z 26/21Z 26/22Z 26/23Z 27/00Z 27/01Z 27/02Z
Type PRVL PRVL PRVL PRVL
VIS >6 >6 >6 >6
CIG 140 140 140 140
Cover BKN BKN BKN BKN
FltCat VFR VFR VFR VFR
WX -- -- -- --
WDir 330 330 330 330
WSpd 6 6 6 6
WGst -- -- -- --

Raw TAF
KBWI 251139Z 2512/2618 10006KT 3/4SM -SHRADZ BR OVC003
  FM251500 16008KT 2SM -SHRA BR BKN010 OVC025
  FM251800 22010G19KT P6SM SCT025 OVC040
  FM252200 27009KT P6SM SCT030 BKN090
  FM260000 29006KT P6SM SCT150 BKN250
  FM260900 33006KT P6SM BKN140


METAR Board
Radar Display
Forecast Discussion

FOR SITUATIONAL AWARENESS. NOT TO BE USED FOR FLIGHT PLANNING PURPOSES.